sensor_id;sensor_type;location;lat;lon;timestamp;pressure;altitude;pressure_sealevel;temperature;humidity
72110;BME280;59983;52.010;5.420;2023-09-08T00:02:27;101674.66;;;19.97;100.00
72110;BME280;59983;52.010;5.420;2023-09-08T00:04:55;101683.75;;;20.16;99.43
72110;BME280;59983;52.010;5.420;2023-09-08T00:07:21;101669.59;;;20.28;99.51
72110;BME280;59983;52.010;5.420;2023-09-08T00:09:48;101671.19;;;20.40;99.27
72110;BME280;59983;52.010;5.420;2023-09-08T00:12:15;101671.22;;;20.47;98.92
72110;BME280;59983;52.010;5.420;2023-09-08T00:14:42;101668.47;;;20.54;99.20
72110;BME280;59983;52.010;5.420;2023-09-08T00:17:08;101663.75;;;20.58;98.82
72110;BME280;59983;52.010;5.420;2023-09-08T00:19:35;101669.25;;;20.58;99.14
72110;BME280;59983;52.010;5.420;2023-09-08T00:22:03;101661.81;;;20.58;99.05
72110;BME280;59983;52.010;5.420;2023-09-08T00:24:32;101665.72;;;20.61;99.00
72110;BME280;59983;52.010;5.420;2023-09-08T00:26:59;101673.22;;;20.64;99.23
72110;BME280;59983;52.010;5.420;2023-09-08T00:29:25;101679.50;;;20.64;98.67
72110;BME280;59983;52.010;5.420;2023-09-08T00:31:52;101678.31;;;20.65;98.65
72110;BME280;59983;52.010;5.420;2023-09-08T00:34:18;101681.06;;;20.65;98.60
72110;BME280;59983;52.010;5.420;2023-09-08T00:36:45;101681.47;;;20.64;99.11
72110;BME280;59983;52.010;5.420;2023-09-08T00:39:12;101683.44;;;20.53;98.83
72110;BME280;59983;52.010;5.420;2023-09-08T00:41:38;101682.63;;;20.49;99.55
72110;BME280;59983;52.010;5.420;2023-09-08T00:44:05;101677.53;;;20.47;99.26
72110;BME280;59983;52.010;5.420;2023-09-08T00:46:32;101679.50;;;20.50;98.92
72110;BME280;59983;52.010;5.420;2023-09-08T00:48:59;101674.78;;;20.47;98.99
72110;BME280;59983;52.010;5.420;2023-09-08T00:51:27;101675.91;;;20.35;99.89
72110;BME280;59983;52.010;5.420;2023-09-08T00:53:53;101677.09;;;20.38;100.00
72110;BME280;59983;52.010;5.420;2023-09-08T00:56:20;101674.75;;;20.33;100.00
72110;BME280;59983;52.010;5.420;2023-09-08T00:58:48;101674.31;;;20.31;100.00
72110;BME280;59983;52.010;5.420;2023-09-08T01:01:15;101673.94;;;20.29;100.00
72110;BME280;59983;52.010;5.420;2023-09-08T01:03:44;101673.94;;;20.32;100.00
72110;BME280;59983;52.010;5.420;2023-09-08T01:06:11;101669.19;;;20.29;100.00
72110;BME280;59983;52.010;5.420;2023-09-08T01:08:39;101669.56;;;20.14;100.00
72110;BME280;59983;52.010;5.420;2023-09-08T01:11:06;101671.13;;;20.07;100.00
72110;BME280;59983;52.010;5.420;2023-09-08T01:13:33;101664.78;;;19.93;100.00
72110;BME280;59983;52.010;5.420;2023-09-08T01:16:01;101671.44;;;19.85;100.00
72110;BME280;59983;52.010;5.420;2023-09-08T01:18:28;101668.31;;;19.79;100.00
72110;BME280;59983;52.010;5.420;2023-09-08T01:26:26;101674.94;;;19.71;100.00
72110;BME280;59983;52.010;5.420;2023-09-08T01:28:54;101670.94;;;19.58;100.00
72110;BME280;59983;52.010;5.420;2023-09-08T01:31:21;101673.31;;;19.59;100.00
72110;BME280;59983;52.010;5.420;2023-09-08T01:33:48;101679.91;;;19.47;100.00
72110;BME280;59983;52.010;5.420;2023-09-08T01:36:15;101673.25;;;19.52;100.00
72110;BME280;59983;52.010;5.420;2023-09-08T01:38:42;101664.13;;;19.37;100.00
72110;BME280;59983;52.010;5.420;2023-09-08T01:41:08;101673.88;;;19.24;100.00
72110;BME280;59983;52.010;5.420;2023-09-08T01:43:35;101669.19;;;19.28;100.00
72110;BME280;59983;52.010;5.420;2023-09-08T01:46:02;101675.50;;;19.32;100.00
72110;BME280;59983;52.010;5.420;2023-09-08T01:48:29;101662.91;;;19.28;100.00
72110;BME280;59983;52.010;5.420;2023-09-08T01:50:55;101668.41;;;19.28;100.00
72110;BME280;59983;52.010;5.420;2023-09-08T01:53:22;101677.06;;;19.26;100.00
72110;BME280;59983;52.010;5.420;2023-09-08T01:55:48;101668.75;;;19.19;100.00
72110;BME280;59983;52.010;5.420;2023-09-08T01:58:15;101669.88;;;19.14;100.00
72110;BME280;59983;52.010;5.420;2023-09-08T02:00:41;101663.91;;;19.02;100.00
72110;BME280;59983;52.010;5.420;2023-09-08T02:03:08;101670.09;;;18.88;100.00
72110;BME280;59983;52.010;5.420;2023-09-08T02:05:35;101670.50;;;18.90;100.00
72110;BME280;59983;52.010;5.420;2023-09-08T02:08:05;101671.28;;;18.90;100.00
72110;BME280;59983;52.010;5.420;2023-09-08T02:10:32;101676.88;;;19.01;100.00
72110;BME280;59983;52.010;5.420;2023-09-08T02:12:58;101671.72;;;18.92;100.00
72110;BME280;59983;52.010;5.420;2023-09-08T02:15:25;101666.53;;;18.84;100.00
72110;BME280;59983;52.010;5.420;2023-09-08T02:17:56;101670.00;;;18.74;100.00
72110;BME280;59983;52.010;5.420;2023-09-08T02:20:22;101664.53;;;18.81;100.00
72110;BME280;59983;52.010;5.420;2023-09-08T02:22:53;101657.41;;;18.73;100.00
72110;BME280;59983;52.010;5.420;2023-09-08T02:25:23;101665.69;;;18.76;100.00
72110;BME280;59983;52.010;5.420;2023-09-08T02:27:49;101663.19;;;18.64;100.00
72110;BME280;59983;52.010;5.420;2023-09-08T02:30:16;101664.84;;;18.68;100.00
72110;BME280;59983;52.010;5.420;2023-09-08T02:32:43;101652.72;;;18.73;100.00
72110;BME280;59983;52.010;5.420;2023-09-08T02:35:09;101649.53;;;18.71;100.00
72110;BME280;59983;52.010;5.420;2023-09-08T02:37:36;101649.16;;;18.73;100.00
72110;BME280;59983;52.010;5.420;2023-09-08T02:40:04;101644.81;;;18.68;100.00
72110;BME280;59983;52.010;5.420;2023-09-08T02:42:31;101652.28;;;18.67;100.00
72110;BME280;59983;52.010;5.420;2023-09-08T02:44:58;101654.16;;;18.63;100.00
72110;BME280;59983;52.010;5.420;2023-09-08T02:47:24;101665.53;;;18.62;100.00
72110;BME280;59983;52.010;5.420;2023-09-08T02:49:51;101660.44;;;18.60;100.00
72110;BME280;59983;52.010;5.420;2023-09-08T02:52:17;101659.34;;;18.68;100.00
72110;BME280;59983;52.010;5.420;2023-09-08T02:54:46;101662.38;;;18.56;100.00
72110;BME280;59983;52.010;5.420;2023-09-08T02:57:12;101663.88;;;18.50;100.00
72110;BME280;59983;52.010;5.420;2023-09-08T02:59:39;101663.47;;;18.48;100.00
72110;BME280;59983;52.010;5.420;2023-09-08T03:02:05;101667.38;;;18.47;100.00
72110;BME280;59983;52.010;5.420;2023-09-08T03:04:32;101665.00;;;18.46;100.00
72110;BME280;59983;52.010;5.420;2023-09-08T03:06:59;101668.53;;;18.46;100.00
72110;BME280;59983;52.010;5.420;2023-09-08T03:09:25;101662.28;;;18.49;100.00
72110;BME280;59983;52.010;5.420;2023-09-08T03:11:52;101666.22;;;18.48;100.00
72110;BME280;59983;52.010;5.420;2023-09-08T03:14:18;101659.09;;;18.44;100.00
72110;BME280;59983;52.010;5.420;2023-09-08T03:16:45;101670.16;;;18.51;100.00
72110;BME280;59983;52.010;5.420;2023-09-08T03:19:12;101659.16;;;18.47;100.00
72110;BME280;59983;52.010;5.420;2023-09-08T03:21:38;101660.28;;;18.46;100.00
72110;BME280;59983;52.010;5.420;2023-09-08T03:24:05;101661.88;;;18.47;100.00
72110;BME280;59983;52.010;5.420;2023-09-08T03:26:31;101658.31;;;18.43;100.00
72110;BME280;59983;52.010;5.420;2023-09-08T03:28:58;101659.06;;;18.40;100.00
72110;BME280;59983;52.010;5.420;2023-09-08T03:31:25;101656.28;;;18.36;100.00
72110;BME280;59983;52.010;5.420;2023-09-08T03:33:52;101652.31;;;18.30;100.00
72110;BME280;59983;52.010;5.420;2023-09-08T03:36:19;101644.06;;;18.30;100.00
72110;BME280;59983;52.010;5.420;2023-09-08T03:38:46;101653.13;;;18.34;100.00
72110;BME280;59983;52.010;5.420;2023-09-08T03:41:12;101655.09;;;18.37;100.00
72110;BME280;59983;52.010;5.420;2023-09-08T03:43:39;101644.94;;;18.38;100.00
72110;BME280;59983;52.010;5.420;2023-09-08T03:46:06;101646.91;;;18.41;100.00
72110;BME280;59983;52.010;5.420;2023-09-08T03:48:32;101645.34;;;18.40;100.00
72110;BME280;59983;52.010;5.420;2023-09-08T03:50:59;101645.75;;;18.46;100.00
72110;BME280;59983;52.010;5.420;2023-09-08T03:53:25;101641.91;;;18.54;100.00
72110;BME280;59983;52.010;5.420;2023-09-08T03:55:52;101646.50;;;18.39;100.00
72110;BME280;59983;52.010;5.420;2023-09-08T03:58:19;101636.63;;;18.31;100.00
72110;BME280;59983;52.010;5.420;2023-09-08T04:00:45;101644.38;;;18.22;100.00
72110;BME280;59983;52.010;5.420;2023-09-08T04:03:12;101634.59;;;18.24;100.00
72110;BME280;59983;52.010;5.420;2023-09-08T04:05:39;101635.72;;;18.20;100.00
72110;BME280;59983;52.010;5.420;2023-09-08T04:08:06;101647.59;;;18.31;100.00
72110;BME280;59983;52.010;5.420;2023-09-08T04:10:32;101639.00;;;18.36;100.00
72110;BME280;59983;52.010;5.420;2023-09-08T04:12:59;101643.38;;;18.40;100.00
72110;BME280;59983;52.010;5.420;2023-09-08T04:15:26;101636.00;;;18.48;100.00
72110;BME280;59983;52.010;5.420;2023-09-08T04:17:52;101634.88;;;18.56;100.00
72110;BME280;59983;52.010;5.420;2023-09-08T04:20:19;101632.94;;;18.60;100.00
72110;BME280;59983;52.010;5.420;2023-09-08T04:22:46;101633.72;;;18.57;100.00
72110;BME280;59983;52.010;5.420;2023-09-08T04:25:14;101629.00;;;18.58;100.00
72110;BME280;59983;52.010;5.420;2023-09-08T04:27:40;101629.41;;;18.60;100.00
72110;BME280;59983;52.010;5.420;2023-09-08T04:30:07;101632.16;;;18.60;100.00
72110;BME280;59983;52.010;5.420;2023-09-08T04:32:34;101625.88;;;18.59;100.00
72110;BME280;59983;52.010;5.420;2023-09-08T04:35:01;101629.75;;;18.55;100.00
72110;BME280;59983;52.010;5.420;2023-09-08T04:37:27;101643.88;;;18.53;100.00
72110;BME280;59983;52.010;5.420;2023-09-08T04:39:54;101636.78;;;18.49;100.00
72110;BME280;59983;52.010;5.420;2023-09-08T04:42:21;101634.44;;;18.51;100.00
72110;BME280;59983;52.010;5.420;2023-09-08T04:44:47;101632.94;;;18.57;100.00
72110;BME280;59983;52.010;5.420;2023-09-08T04:47:14;101642.22;;;18.45;100.00
72110;BME280;59983;52.010;5.420;2023-09-08T04:49:40;101641.81;;;18.43;100.00
72110;BME280;59983;52.010;5.420;2023-09-08T04:52:07;101637.50;;;18.42;100.00
72110;BME280;59983;52.010;5.420;2023-09-08T04:54:34;101637.84;;;18.37;100.00
72110;BME280;59983;52.010;5.420;2023-09-08T04:57:01;101639.78;;;18.36;100.00
72110;BME280;59983;52.010;5.420;2023-09-08T04:59:45;101633.97;;;18.42;100.00
72110;BME280;59983;52.010;5.420;2023-09-08T05:02:12;101635.22;;;18.51;100.00
72110;BME280;59983;52.010;5.420;2023-09-08T05:04:39;101643.13;;;18.56;100.00
72110;BME280;59983;52.010;5.420;2023-09-08T05:07:05;101641.56;;;18.55;100.00
72110;BME280;59983;52.010;5.420;2023-09-08T05:09:32;101643.06;;;18.49;100.00
72110;BME280;59983;52.010;5.420;2023-09-08T05:12:00;101643.41;;;18.44;100.00
72110;BME280;59983;52.010;5.420;2023-09-08T05:14:26;101641.44;;;18.45;100.00
72110;BME280;59983;52.010;5.420;2023-09-08T05:16:53;101638.34;;;18.50;100.00
72110;BME280;59983;52.010;5.420;2023-09-08T05:19:22;101637.94;;;18.48;100.00
72110;BME280;59983;52.010;5.420;2023-09-08T05:21:51;101641.06;;;18.46;100.00
72110;BME280;59983;52.010;5.420;2023-09-08T05:24:18;101639.91;;;18.47;100.00
72110;BME280;59983;52.010;5.420;2023-09-08T05:26:45;101645.44;;;18.51;100.00
72110;BME280;59983;52.010;5.420;2023-09-08T05:29:11;101636.06;;;18.59;100.00
72110;BME280;59983;52.010;5.420;2023-09-08T05:31:38;101644.81;;;18.68;100.00
72110;BME280;59983;52.010;5.420;2023-09-08T05:34:05;101640.88;;;18.65;100.00
72110;BME280;59983;52.010;5.420;2023-09-08T05:36:31;101644.44;;;18.70;100.00
72110;BME280;59983;52.010;5.420;2023-09-08T05:38:59;101646.06;;;18.74;100.00
72110;BME280;59983;52.010;5.420;2023-09-08T05:41:26;101649.19;;;18.76;100.00
72110;BME280;59983;52.010;5.420;2023-09-08T05:43:53;101651.16;;;18.76;100.00
72110;BME280;59983;52.010;5.420;2023-09-08T05:46:19;101651.22;;;18.83;100.00
72110;BME280;59983;52.010;5.420;2023-09-08T05:48:46;101658.31;;;18.87;100.00
72110;BME280;59983;52.010;5.420;2023-09-08T05:51:14;101654.38;;;18.88;100.00
72110;BME280;59983;52.010;5.420;2023-09-08T05:53:41;101652.88;;;18.94;100.00
72110;BME280;59983;52.010;5.420;2023-09-08T05:56:08;101665.88;;;19.01;100.00
72110;BME280;59983;52.010;5.420;2023-09-08T05:58:35;101667.06;;;19.04;100.00
72110;BME280;59983;52.010;5.420;2023-09-08T06:01:02;101666.69;;;19.05;100.00
72110;BME280;59983;52.010;5.420;2023-09-08T06:03:30;101663.97;;;19.09;100.00
72110;BME280;59983;52.010;5.420;2023-09-08T06:05:57;101672.63;;;19.14;100.00
72110;BME280;59983;52.010;5.420;2023-09-08T06:08:23;101664.03;;;19.23;100.00
72110;BME280;59983;52.010;5.420;2023-09-08T06:10:50;101666.84;;;19.30;100.00
72110;BME280;59983;52.010;5.420;2023-09-08T06:13:17;101670.03;;;19.36;100.00
72110;BME280;59983;52.010;5.420;2023-09-08T06:15:44;101667.69;;;19.41;100.00
72110;BME280;59983;52.010;5.420;2023-09-08T06:18:11;101663.78;;;19.49;100.00
72110;BME280;59983;52.010;5.420;2023-09-08T06:20:46;101672.88;;;19.53;100.00
72110;BME280;59983;52.010;5.420;2023-09-08T06:23:14;101668.94;;;19.55;100.00
72110;BME280;59983;52.010;5.420;2023-09-08T06:25:41;101665.06;;;19.59;100.00
72110;BME280;59983;52.010;5.420;2023-09-08T06:28:07;101663.50;;;19.69;100.00
72110;BME280;59983;52.010;5.420;2023-09-08T06:30:34;101665.91;;;19.74;100.00
72110;BME280;59983;52.010;5.420;2023-09-08T06:33:01;101667.09;;;19.76;100.00
72110;BME280;59983;52.010;5.420;2023-09-08T06:35:29;101671.84;;;19.79;100.00
72110;BME280;59983;52.010;5.420;2023-09-08T06:37:56;101675.00;;;19.82;100.00
72110;BME280;59983;52.010;5.420;2023-09-08T06:40:24;101679.31;;;19.86;100.00
72110;BME280;59983;52.010;5.420;2023-09-08T06:42:50;101684.06;;;19.93;100.00
72110;BME280;59983;52.010;5.420;2023-09-08T06:45:17;101678.97;;;19.98;100.00
72110;BME280;59983;52.010;5.420;2023-09-08T06:47:44;101678.59;;;20.03;100.00
72110;BME280;59983;52.010;5.420;2023-09-08T06:50:11;101684.13;;;20.11;100.00
72110;BME280;59983;52.010;5.420;2023-09-08T06:52:38;101684.53;;;20.20;100.00
72110;BME280;59983;52.010;5.420;2023-09-08T06:55:05;101687.31;;;20.23;100.00
72110;BME280;59983;52.010;5.420;2023-09-08T06:57:31;101683.38;;;20.31;100.00
72110;BME280;59983;52.010;5.420;2023-09-08T06:59:58;101675.91;;;20.32;100.00
72110;BME280;59983;52.010;5.420;2023-09-08T07:02:24;101681.03;;;20.37;100.00
72110;BME280;59983;52.010;5.420;2023-09-08T07:04:51;101671.63;;;20.45;100.00
72110;BME280;59983;52.010;5.420;2023-09-08T07:07:18;101686.19;;;20.53;100.00
72110;BME280;59983;52.010;5.420;2023-09-08T07:09:47;101690.94;;;20.59;100.00
72110;BME280;59983;52.010;5.420;2023-09-08T07:12:13;101692.91;;;20.62;100.00
72110;BME280;59983;52.010;5.420;2023-09-08T07:14:40;101688.16;;;20.67;100.00
72110;BME280;59983;52.010;5.420;2023-09-08T07:17:06;101692.91;;;20.73;100.00
72110;BME280;59983;52.010;5.420;2023-09-08T07:19:33;101694.06;;;20.83;100.00
72110;BME280;59983;52.010;5.420;2023-09-08T07:22:00;101692.91;;;20.91;100.00
72110;BME280;59983;52.010;5.420;2023-09-08T07:24:26;101687.41;;;20.95;100.00
72110;BME280;59983;52.010;5.420;2023-09-08T07:26:53;101694.09;;;21.04;100.00
72110;BME280;59983;52.010;5.420;2023-09-08T07:29:19;101691.72;;;21.13;100.00
72110;BME280;59983;52.010;5.420;2023-09-08T07:31:46;101693.66;;;21.20;100.00
72110;BME280;59983;52.010;5.420;2023-09-08T07:34:12;101688.91;;;21.35;100.00
72110;BME280;59983;52.010;5.420;2023-09-08T07:36:39;101700.72;;;21.46;100.00
72110;BME280;59983;52.010;5.420;2023-09-08T07:39:06;101697.53;;;21.58;100.00
72110;BME280;59983;52.010;5.420;2023-09-08T07:41:32;101699.50;;;21.65;100.00
72110;BME280;59983;52.010;5.420;2023-09-08T07:43:59;101695.50;;;21.73;98.58
72110;BME280;59983;52.010;5.420;2023-09-08T07:46:26;101702.56;;;21.85;98.65
72110;BME280;59983;52.010;5.420;2023-09-08T07:48:52;101699.00;;;21.91;96.43
72110;BME280;59983;52.010;5.420;2023-09-08T07:51:19;101703.72;;;21.91;97.00
72110;BME280;59983;52.010;5.420;2023-09-08T07:53:46;101703.31;;;21.96;96.20
72110;BME280;59983;52.010;5.420;2023-09-08T07:56:12;101696.97;;;22.02;96.22
72110;BME280;59983;52.010;5.420;2023-09-08T07:58:39;101700.44;;;22.17;97.38
72110;BME280;59983;52.010;5.420;2023-09-08T08:01:06;101697.56;;;22.35;96.33
72110;BME280;59983;52.010;5.420;2023-09-08T08:03:33;101697.53;;;22.46;94.86
72110;BME280;59983;52.010;5.420;2023-09-08T08:06:02;101692.31;;;22.51;95.96
72110;BME280;59983;52.010;5.420;2023-09-08T08:08:28;101698.59;;;22.63;96.30
72110;BME280;59983;52.010;5.420;2023-09-08T08:10:55;101694.16;;;22.69;94.67
72110;BME280;59983;52.010;5.420;2023-09-08T08:13:22;101694.91;;;22.76;93.93
72110;BME280;59983;52.010;5.420;2023-09-08T08:15:48;101691.28;;;22.86;93.55
72110;BME280;59983;52.010;5.420;2023-09-08T08:18:16;101697.13;;;22.96;93.49
72110;BME280;59983;52.010;5.420;2023-09-08T08:20:43;101687.97;;;23.06;94.96
72110;BME280;59983;52.010;5.420;2023-09-08T08:23:10;101686.19;;;23.23;93.63
72110;BME280;59983;52.010;5.420;2023-09-08T08:25:36;101694.78;;;23.35;93.26
72110;BME280;59983;52.010;5.420;2023-09-08T08:28:03;101683.16;;;23.48;91.42
72110;BME280;59983;52.010;5.420;2023-09-08T08:30:30;101686.22;;;23.60;90.41
72110;BME280;59983;52.010;5.420;2023-09-08T08:32:56;101684.09;;;23.71;90.48
72110;BME280;59983;52.010;5.420;2023-09-08T08:35:23;101677.72;;;23.74;88.72
72110;BME280;59983;52.010;5.420;2023-09-08T08:37:50;101677.19;;;23.87;88.07
72110;BME280;59983;52.010;5.420;2023-09-08T08:40:17;101681.38;;;23.98;87.66
72110;BME280;59983;52.010;5.420;2023-09-08T08:42:43;101681.63;;;24.08;87.54
72110;BME280;59983;52.010;5.420;2023-09-08T08:45:10;101682.66;;;24.21;86.56
72110;BME280;59983;52.010;5.420;2023-09-08T08:47:39;101685.28;;;24.32;88.87
72110;BME280;59983;52.010;5.420;2023-09-08T08:50:07;101685.47;;;24.44;86.49
72110;BME280;59983;52.010;5.420;2023-09-08T08:52:37;101684.16;;;24.52;85.30
72110;BME280;59983;52.010;5.420;2023-09-08T08:55:04;101691.59;;;24.59;85.28
72110;BME280;59983;52.010;5.420;2023-09-08T08:57:32;101684.22;;;24.72;85.76
72110;BME280;59983;52.010;5.420;2023-09-08T08:59:59;101681.16;;;24.90;86.99
72110;BME280;59983;52.010;5.420;2023-09-08T09:02:28;101687.00;;;24.96;86.31
72110;BME280;59983;52.010;5.420;2023-09-08T09:04:55;101682.25;;;24.96;84.85
72110;BME280;59983;52.010;5.420;2023-09-08T09:07:22;101682.50;;;25.05;87.83
72110;BME280;59983;52.010;5.420;2023-09-08T09:09:51;101689.91;;;25.12;86.99
72110;BME280;59983;52.010;5.420;2023-09-08T09:12:18;101689.78;;;25.19;85.68
72110;BME280;59983;52.010;5.420;2023-09-08T09:14:45;101682.47;;;25.29;85.75
72110;BME280;59983;52.010;5.420;2023-09-08T09:17:15;101683.59;;;25.31;85.04
72110;BME280;59983;52.010;5.420;2023-09-08T09:19:42;101687.03;;;25.39;83.55
72110;BME280;59983;52.010;5.420;2023-09-08T09:22:08;101687.47;;;25.37;83.39
72110;BME280;59983;52.010;5.420;2023-09-08T09:24:37;101682.91;;;25.47;84.74
72110;BME280;59983;52.010;5.420;2023-09-08T09:27:07;101683.59;;;25.51;83.28
72110;BME280;59983;52.010;5.420;2023-09-08T09:29:43;101687.88;;;25.56;82.62
72110;BME280;59983;52.010;5.420;2023-09-08T09:32:11;101691.38;;;25.60;84.84
72110;BME280;59983;52.010;5.420;2023-09-08T09:34:53;101683.38;;;25.62;84.31
72110;BME280;59983;52.010;5.420;2023-09-08T09:37:21;101688.88;;;25.65;83.64
72110;BME280;59983;52.010;5.420;2023-09-08T09:39:53;101686.09;;;25.65;84.16
72110;BME280;59983;52.010;5.420;2023-09-08T09:42:20;101687.66;;;25.66;82.92
72110;BME280;59983;52.010;5.420;2023-09-08T09:44:48;101692.00;;;25.67;84.35
72110;BME280;59983;52.010;5.420;2023-09-08T09:47:15;101677.28;;;25.70;83.99
72110;BME280;59983;52.010;5.420;2023-09-08T09:49:43;101682.19;;;25.63;82.80
72110;BME280;59983;52.010;5.420;2023-09-08T09:52:20;101679.91;;;25.58;83.81
72110;BME280;59983;52.010;5.420;2023-09-08T09:54:47;101679.47;;;25.59;84.47
72110;BME280;59983;52.010;5.420;2023-09-08T09:57:20;101681.56;;;25.55;83.94
72110;BME280;59983;52.010;5.420;2023-09-08T09:59:47;101681.59;;;25.52;85.48
72110;BME280;59983;52.010;5.420;2023-09-08T10:02:18;101685.91;;;25.56;86.40
72110;BME280;59983;52.010;5.420;2023-09-08T10:04:49;101682.38;;;25.52;85.20
72110;BME280;59983;52.010;5.420;2023-09-08T10:07:17;101669.28;;;25.53;85.08
72110;BME280;59983;52.010;5.420;2023-09-08T10:09:44;101675.66;;;25.53;84.89
72110;BME280;59983;52.010;5.420;2023-09-08T10:12:13;101681.56;;;25.55;85.86
72110;BME280;59983;52.010;5.420;2023-09-08T10:14:42;101673.22;;;25.55;83.77
72110;BME280;59983;52.010;5.420;2023-09-08T10:17:12;101675.22;;;25.55;84.55
72110;BME280;59983;52.010;5.420;2023-09-08T10:19:43;101673.13;;;25.59;86.22
72110;BME280;59983;52.010;5.420;2023-09-08T10:22:15;101683.38;;;25.62;84.88
72110;BME280;59983;52.010;5.420;2023-09-08T10:24:46;101680.59;;;25.62;83.82
72110;BME280;59983;52.010;5.420;2023-09-08T10:27:13;101674.63;;;25.63;84.47
72110;BME280;59983;52.010;5.420;2023-09-08T10:29:40;101677.81;;;25.62;83.32
72110;BME280;59983;52.010;5.420;2023-09-08T10:32:08;101679.41;;;25.63;83.70
72110;BME280;59983;52.010;5.420;2023-09-08T10:34:36;101670.66;;;25.64;83.09
72110;BME280;59983;52.010;5.420;2023-09-08T10:37:18;101672.13;;;25.69;84.36
72110;BME280;59983;52.010;5.420;2023-09-08T10:39:45;101671.66;;;25.74;84.89
72110;BME280;59983;52.010;5.420;2023-09-08T10:48:09;101669.50;;;25.82;84.86
72110;BME280;59983;52.010;5.420;2023-09-08T10:50:20;101661.09;;;25.85;85.04
72110;BME280;59983;52.010;5.420;2023-09-08T10:55:40;101659.03;;;25.89;84.88
72110;BME280;59983;52.010;5.420;2023-09-08T10:58:11;101659.03;;;25.89;83.52
72110;BME280;59983;52.010;5.420;2023-09-08T11:00:43;101667.19;;;25.96;84.62
72110;BME280;59983;52.010;5.420;2023-09-08T11:03:11;101665.47;;;26.03;85.25
72110;BME280;59983;52.010;5.420;2023-09-08T11:05:38;101661.03;;;26.05;84.74
72110;BME280;59983;52.010;5.420;2023-09-08T11:08:05;101664.19;;;26.07;84.95
72110;BME280;59983;52.010;5.420;2023-09-08T11:10:32;101662.53;;;26.10;85.32
72110;BME280;59983;52.010;5.420;2023-09-08T11:12:59;101663.94;;;26.18;85.51
72110;BME280;59983;52.010;5.420;2023-09-08T11:15:26;101667.41;;;26.22;84.61
72110;BME280;59983;52.010;5.420;2023-09-08T11:17:53;101661.78;;;26.25;83.17
72110;BME280;59983;52.010;5.420;2023-09-08T11:20:26;101666.03;;;26.30;82.55
72110;BME280;59983;52.010;5.420;2023-09-08T11:22:54;101660.38;;;26.34;83.64
72110;BME280;59983;52.010;5.420;2023-09-08T11:25:20;101670.63;;;26.37;83.00
72110;BME280;59983;52.010;5.420;2023-09-08T11:27:47;101660.94;;;26.45;84.59
72110;BME280;59983;52.010;5.420;2023-09-08T11:30:17;101665.56;;;26.51;83.43
72110;BME280;59983;52.010;5.420;2023-09-08T11:32:44;101663.88;;;26.54;82.89
72110;BME280;59983;52.010;5.420;2023-09-08T11:35:11;101665.72;;;26.61;83.40
72110;BME280;59983;52.010;5.420;2023-09-08T11:37:40;101663.16;;;26.66;85.88
72110;BME280;59983;52.010;5.420;2023-09-08T11:40:09;101667.63;;;26.64;83.49
72110;BME280;59983;52.010;5.420;2023-09-08T11:42:39;101668.31;;;26.68;82.14
72110;BME280;59983;52.010;5.420;2023-09-08T11:45:15;101666.66;;;26.70;81.63
72110;BME280;59983;52.010;5.420;2023-09-08T11:47:57;101666.91;;;26.76;84.44
72110;BME280;59983;52.010;5.420;2023-09-08T11:50:24;101671.50;;;26.82;82.09
72110;BME280;59983;52.010;5.420;2023-09-08T11:52:52;101664.72;;;26.83;81.56
72110;BME280;59983;52.010;5.420;2023-09-08T11:55:21;101669.06;;;26.85;82.00
72110;BME280;59983;52.010;5.420;2023-09-08T11:57:51;101670.88;;;26.91;82.81
72110;BME280;59983;52.010;5.420;2023-09-08T12:00:22;101666.03;;;26.95;81.19
72110;BME280;59983;52.010;5.420;2023-09-08T12:02:49;101667.59;;;26.96;80.80
72110;BME280;59983;52.010;5.420;2023-09-08T12:05:20;101665.47;;;27.00;81.52
72110;BME280;59983;52.010;5.420;2023-09-08T12:07:50;101657.75;;;27.08;81.99
72110;BME280;59983;52.010;5.420;2023-09-08T12:10:16;101658.06;;;27.10;79.57
72110;BME280;59983;52.010;5.420;2023-09-08T12:12:47;101658.00;;;27.14;80.86
72110;BME280;59983;52.010;5.420;2023-09-08T12:15:37;101651.53;;;27.17;80.37
72110;BME280;59983;52.010;5.420;2023-09-08T12:18:09;101653.03;;;27.21;80.13
72110;BME280;59983;52.010;5.420;2023-09-08T12:20:37;101652.00;;;27.28;80.37
72110;BME280;59983;52.010;5.420;2023-09-08T12:23:16;101649.81;;;27.35;80.90
72110;BME280;59983;52.010;5.420;2023-09-08T12:25:50;101654.84;;;27.41;79.59
72110;BME280;59983;52.010;5.420;2023-09-08T12:28:19;101649.94;;;27.45;79.86
72110;BME280;59983;52.010;5.420;2023-09-08T12:30:46;101651.31;;;27.53;78.66
72110;BME280;59983;52.010;5.420;2023-09-08T12:33:14;101647.63;;;27.56;77.50
72110;BME280;59983;52.010;5.420;2023-09-08T12:35:45;101654.22;;;27.62;79.61
72110;BME280;59983;52.010;5.420;2023-09-08T12:38:13;101650.47;;;27.69;77.22
72110;BME280;59983;52.010;5.420;2023-09-08T12:40:39;101640.56;;;27.80;77.17
72110;BME280;59983;52.010;5.420;2023-09-08T12:43:06;101645.03;;;27.90;77.25
72110;BME280;59983;52.010;5.420;2023-09-08T12:45:54;101638.44;;;27.97;77.00
72110;BME280;59983;52.010;5.420;2023-09-08T12:48:21;101644.47;;;28.08;76.93
72110;BME280;59983;52.010;5.420;2023-09-08T12:50:48;101636.88;;;28.21;76.23
72110;BME280;59983;52.010;5.420;2023-09-08T12:53:16;101641.09;;;28.26;75.82
72110;BME280;59983;52.010;5.420;2023-09-08T12:55:47;101641.88;;;28.27;76.58
72110;BME280;59983;52.010;5.420;2023-09-08T12:58:14;101630.38;;;28.25;75.87
72110;BME280;59983;52.010;5.420;2023-09-08T13:00:41;101642.25;;;28.29;78.29
72110;BME280;59983;52.010;5.420;2023-09-08T13:03:07;101629.75;;;28.33;77.66